sensor_id;sensor_type;location;lat;lon;timestamp;pressure;altitude;pressure_sealevel;temperature;humidity
48882;BME280;57063;51.406;-2.402;2024-01-07T00:02:23;101262.41;;;4.12;100.00
48882;BME280;57063;51.406;-2.402;2024-01-07T00:04:48;101265.88;;;4.08;100.00
48882;BME280;57063;51.406;-2.402;2024-01-07T00:07:13;101263.47;;;3.97;100.00
48882;BME280;57063;51.406;-2.402;2024-01-07T00:09:39;101270.97;;;4.08;100.00
48882;BME280;57063;51.406;-2.402;2024-01-07T00:12:04;101278.72;;;4.05;100.00
48882;BME280;57063;51.406;-2.402;2024-01-07T00:14:30;101277.97;;;3.97;100.00
48882;BME280;57063;51.406;-2.402;2024-01-07T00:16:55;101281.41;;;3.94;100.00
48882;BME280;57063;51.406;-2.402;2024-01-07T00:19:20;101287.44;;;3.90;100.00
48882;BME280;57063;51.406;-2.402;2024-01-07T00:21:46;101291.81;;;3.83;100.00
48882;BME280;57063;51.406;-2.402;2024-01-07T00:24:11;101297.75;;;3.84;100.00
48882;BME280;57063;51.406;-2.402;2024-01-07T00:26:36;101299.66;;;3.71;100.00
48882;BME280;57063;51.406;-2.402;2024-01-07T00:29:02;101307.28;;;3.74;100.00
48882;BME280;57063;51.406;-2.402;2024-01-07T00:31:27;101307.22;;;3.77;100.00
48882;BME280;57063;51.406;-2.402;2024-01-07T00:33:52;101303.94;;;3.69;100.00
48882;BME280;57063;51.406;-2.402;2024-01-07T00:36:18;101315.75;;;3.76;100.00
48882;BME280;57063;51.406;-2.402;2024-01-07T00:38:43;101310.72;;;3.73;100.00
48882;BME280;57063;51.406;-2.402;2024-01-07T00:41:09;101313.34;;;3.67;100.00
48882;BME280;57063;51.406;-2.402;2024-01-07T00:43:34;101313.47;;;3.59;100.00
48882;BME280;57063;51.406;-2.402;2024-01-07T00:45:59;101321.09;;;3.61;100.00
48882;BME280;57063;51.406;-2.402;2024-01-07T00:48:25;101321.25;;;3.49;100.00
48882;BME280;57063;51.406;-2.402;2024-01-07T00:50:50;101323.91;;;3.42;100.00
48882;BME280;57063;51.406;-2.402;2024-01-07T00:53:15;101324.78;;;3.41;100.00
48882;BME280;57063;51.406;-2.402;2024-01-07T00:55:41;101318.97;;;3.29;100.00
48882;BME280;57063;51.406;-2.402;2024-01-07T00:58:06;101321.34;;;3.44;100.00
48882;BME280;57063;51.406;-2.402;2024-01-07T01:00:31;101320.63;;;3.33;100.00
48882;BME280;57063;51.406;-2.402;2024-01-07T01:02:57;101317.34;;;3.25;100.00
48882;BME280;57063;51.406;-2.402;2024-01-07T01:05:23;101317.34;;;3.23;100.00
48882;BME280;57063;51.406;-2.402;2024-01-07T01:07:48;101323.25;;;3.27;100.00
48882;BME280;57063;51.406;-2.402;2024-01-07T01:10:14;101319.75;;;3.34;100.00
48882;BME280;57063;51.406;-2.402;2024-01-07T01:12:43;101327.34;;;3.40;100.00
48882;BME280;57063;51.406;-2.402;2024-01-07T01:15:09;101333.41;;;3.31;100.00
48882;BME280;57063;51.406;-2.402;2024-01-07T01:17:34;101329.06;;;3.36;100.00
48882;BME280;57063;51.406;-2.402;2024-01-07T01:19:59;101326.50;;;3.39;100.00
48882;BME280;57063;51.406;-2.402;2024-01-07T01:22:25;101325.56;;;3.45;100.00
48882;BME280;57063;51.406;-2.402;2024-01-07T01:24:50;101329.72;;;3.54;100.00
48882;BME280;57063;51.406;-2.402;2024-01-07T01:27:16;101316.25;;;3.42;100.00
48882;BME280;57063;51.406;-2.402;2024-01-07T01:29:41;101322.19;;;3.43;100.00
48882;BME280;57063;51.406;-2.402;2024-01-07T01:32:07;101328.09;;;3.47;100.00
48882;BME280;57063;51.406;-2.402;2024-01-07T01:34:32;101329.72;;;3.51;100.00
48882;BME280;57063;51.406;-2.402;2024-01-07T01:36:57;101323.19;;;3.33;100.00
48882;BME280;57063;51.406;-2.402;2024-01-07T01:39:23;101323.84;;;3.47;100.00
48882;BME280;57063;51.406;-2.402;2024-01-07T01:41:48;101328.19;;;3.40;100.00
48882;BME280;57063;51.406;-2.402;2024-01-07T01:44:14;101329.84;;;3.45;100.00
48882;BME280;57063;51.406;-2.402;2024-01-07T01:46:39;101330.75;;;3.39;100.00
48882;BME280;57063;51.406;-2.402;2024-01-07T01:49:05;101329.13;;;3.33;100.00
48882;BME280;57063;51.406;-2.402;2024-01-07T01:51:31;101337.59;;;3.35;100.00
48882;BME280;57063;51.406;-2.402;2024-01-07T01:53:57;101345.25;;;3.37;100.00
48882;BME280;57063;51.406;-2.402;2024-01-07T01:56:25;101341.72;;;3.46;100.00
48882;BME280;57063;51.406;-2.402;2024-01-07T01:58:52;101341.88;;;3.33;100.00
48882;BME280;57063;51.406;-2.402;2024-01-07T02:01:18;101343.53;;;3.36;100.00
48882;BME280;57063;51.406;-2.402;2024-01-07T02:03:43;101352.19;;;3.27;100.00
48882;BME280;57063;51.406;-2.402;2024-01-07T02:06:09;101347.91;;;3.28;100.00
48882;BME280;57063;51.406;-2.402;2024-01-07T02:08:37;101352.19;;;3.24;100.00
48882;BME280;57063;51.406;-2.402;2024-01-07T02:11:20;101351.31;;;3.28;100.00
48882;BME280;57063;51.406;-2.402;2024-01-07T02:13:46;101358.94;;;3.30;100.00
48882;BME280;57063;51.406;-2.402;2024-01-07T02:16:12;101367.34;;;3.36;100.00
48882;BME280;57063;51.406;-2.402;2024-01-07T02:18:40;101366.50;;;3.37;100.00
48882;BME280;57063;51.406;-2.402;2024-01-07T02:21:10;101369.13;;;3.31;100.00
48882;BME280;57063;51.406;-2.402;2024-01-07T02:23:37;101373.38;;;3.32;100.00
48882;BME280;57063;51.406;-2.402;2024-01-07T02:26:02;101372.41;;;3.41;100.00
48882;BME280;57063;51.406;-2.402;2024-01-07T02:28:29;101369.06;;;3.37;100.00
48882;BME280;57063;51.406;-2.402;2024-01-07T02:30:54;101363.84;;;3.43;100.00
48882;BME280;57063;51.406;-2.402;2024-01-07T02:33:20;101368.22;;;3.37;100.00
48882;BME280;57063;51.406;-2.402;2024-01-07T02:35:45;101377.53;;;3.39;100.00
48882;BME280;57063;51.406;-2.402;2024-01-07T02:38:10;101372.38;;;3.42;100.00
48882;BME280;57063;51.406;-2.402;2024-01-07T02:40:36;101373.28;;;3.40;100.00
48882;BME280;57063;51.406;-2.402;2024-01-07T02:43:01;101380.00;;;3.46;100.00
48882;BME280;57063;51.406;-2.402;2024-01-07T02:45:26;101380.91;;;3.41;100.00
48882;BME280;57063;51.406;-2.402;2024-01-07T02:47:52;101391.19;;;3.34;100.00
48882;BME280;57063;51.406;-2.402;2024-01-07T02:50:17;101393.75;;;3.35;100.00
48882;BME280;57063;51.406;-2.402;2024-01-07T02:52:42;101387.81;;;3.33;100.00
48882;BME280;57063;51.406;-2.402;2024-01-07T02:55:08;101390.94;;;3.55;100.00
48882;BME280;57063;51.406;-2.402;2024-01-07T02:57:34;101394.31;;;3.59;100.00
48882;BME280;57063;51.406;-2.402;2024-01-07T02:59:59;101398.63;;;3.52;100.00
48882;BME280;57063;51.406;-2.402;2024-01-07T03:02:24;101399.59;;;3.43;100.00
48882;BME280;57063;51.406;-2.402;2024-01-07T03:04:50;101398.69;;;3.46;100.00
48882;BME280;57063;51.406;-2.402;2024-01-07T03:07:15;101411.34;;;3.55;100.00
48882;BME280;57063;51.406;-2.402;2024-01-07T03:09:40;101406.19;;;3.60;100.00
48882;BME280;57063;51.406;-2.402;2024-01-07T03:12:06;101405.19;;;3.70;100.00
48882;BME280;57063;51.406;-2.402;2024-01-07T03:14:31;101413.75;;;3.68;100.00
48882;BME280;57063;51.406;-2.402;2024-01-07T03:16:57;101409.47;;;3.68;100.00
48882;BME280;57063;51.406;-2.402;2024-01-07T03:19:22;101422.25;;;3.68;100.00
48882;BME280;57063;51.406;-2.402;2024-01-07T03:21:48;101417.78;;;3.82;100.00
48882;BME280;57063;51.406;-2.402;2024-01-07T03:24:13;101416.28;;;3.68;100.00
48882;BME280;57063;51.406;-2.402;2024-01-07T03:26:39;101412.16;;;3.59;100.00
48882;BME280;57063;51.406;-2.402;2024-01-07T03:29:04;101419.78;;;3.63;100.00
48882;BME280;57063;51.406;-2.402;2024-01-07T03:31:30;101417.19;;;3.65;100.00
48882;BME280;57063;51.406;-2.402;2024-01-07T03:33:55;101428.28;;;3.64;100.00
48882;BME280;57063;51.406;-2.402;2024-01-07T03:36:21;101429.88;;;3.71;100.00
48882;BME280;57063;51.406;-2.402;2024-01-07T03:38:46;101424.88;;;3.63;100.00
48882;BME280;57063;51.406;-2.402;2024-01-07T03:41:18;101428.22;;;3.67;100.00
48882;BME280;57063;51.406;-2.402;2024-01-07T03:43:48;101429.78;;;3.77;100.00
48882;BME280;57063;51.406;-2.402;2024-01-07T03:46:14;101430.63;;;3.79;100.00
48882;BME280;57063;51.406;-2.402;2024-01-07T03:48:41;101428.19;;;3.70;100.00
48882;BME280;57063;51.406;-2.402;2024-01-07T03:51:06;101421.19;;;3.84;100.00
48882;BME280;57063;51.406;-2.402;2024-01-07T03:53:32;101425.56;;;3.76;100.00
48882;BME280;57063;51.406;-2.402;2024-01-07T03:55:58;101422.13;;;3.79;100.00
48882;BME280;57063;51.406;-2.402;2024-01-07T03:58:23;101423.88;;;3.74;100.00
48882;BME280;57063;51.406;-2.402;2024-01-07T04:00:48;101429.78;;;3.77;100.00
48882;BME280;57063;51.406;-2.402;2024-01-07T04:03:14;101433.13;;;3.82;100.00
48882;BME280;57063;51.406;-2.402;2024-01-07T04:05:39;101428.78;;;3.89;100.00
48882;BME280;57063;51.406;-2.402;2024-01-07T04:08:05;101427.16;;;3.83;100.00
48882;BME280;57063;51.406;-2.402;2024-01-07T04:10:30;101434.94;;;3.76;100.00
48882;BME280;57063;51.406;-2.402;2024-01-07T04:12:55;101438.28;;;3.79;100.00
48882;BME280;57063;51.406;-2.402;2024-01-07T04:15:21;101433.28;;;3.70;100.00
48882;BME280;57063;51.406;-2.402;2024-01-07T04:17:48;101434.16;;;3.69;100.00
48882;BME280;57063;51.406;-2.402;2024-01-07T04:20:13;101442.59;;;3.76;100.00
48882;BME280;57063;51.406;-2.402;2024-01-07T04:22:39;101454.50;;;3.75;100.00
48882;BME280;57063;51.406;-2.402;2024-01-07T04:25:04;101440.81;;;3.79;100.00
48882;BME280;57063;51.406;-2.402;2024-01-07T04:27:34;101435.00;;;3.71;100.00
48882;BME280;57063;51.406;-2.402;2024-01-07T04:29:59;101442.59;;;3.74;100.00
48882;BME280;57063;51.406;-2.402;2024-01-07T04:32:25;101454.53;;;3.74;100.00
48882;BME280;57063;51.406;-2.402;2024-01-07T04:34:50;101454.53;;;3.74;100.00
48882;BME280;57063;51.406;-2.402;2024-01-07T04:37:16;101453.66;;;3.76;100.00
48882;BME280;57063;51.406;-2.402;2024-01-07T04:39:41;101458.81;;;3.73;100.00
48882;BME280;57063;51.406;-2.402;2024-01-07T04:42:06;101455.44;;;3.68;100.00
48882;BME280;57063;51.406;-2.402;2024-01-07T04:44:32;101451.97;;;3.72;100.00
48882;BME280;57063;51.406;-2.402;2024-01-07T04:46:57;101448.59;;;3.73;100.00
48882;BME280;57063;51.406;-2.402;2024-01-07T04:49:22;101452.72;;;3.82;100.00
48882;BME280;57063;51.406;-2.402;2024-01-07T04:51:48;101456.19;;;3.76;100.00
48882;BME280;57063;51.406;-2.402;2024-01-07T04:54:13;101458.75;;;3.75;100.00
48882;BME280;57063;51.406;-2.402;2024-01-07T04:56:38;101456.31;;;3.67;100.00
48882;BME280;57063;51.406;-2.402;2024-01-07T04:59:04;101463.06;;;3.71;100.00
48882;BME280;57063;51.406;-2.402;2024-01-07T05:01:29;101452.91;;;3.65;100.00
48882;BME280;57063;51.406;-2.402;2024-01-07T05:03:55;101465.72;;;3.62;100.00
48882;BME280;57063;51.406;-2.402;2024-01-07T05:06:20;101457.50;;;3.38;100.00
48882;BME280;57063;51.406;-2.402;2024-01-07T05:08:45;101463.44;;;3.39;100.00
48882;BME280;57063;51.406;-2.402;2024-01-07T05:11:11;101465.13;;;3.41;100.00
48882;BME280;57063;51.406;-2.402;2024-01-07T05:13:36;101471.13;;;3.37;100.00
48882;BME280;57063;51.406;-2.402;2024-01-07T05:16:02;101477.00;;;3.44;100.00
48882;BME280;57063;51.406;-2.402;2024-01-07T05:18:28;101468.63;;;3.33;100.00
48882;BME280;57063;51.406;-2.402;2024-01-07T05:20:53;101483.97;;;3.30;100.00
48882;BME280;57063;51.406;-2.402;2024-01-07T05:23:18;101485.59;;;3.34;100.00
48882;BME280;57063;51.406;-2.402;2024-01-07T05:25:44;101483.06;;;3.35;100.00
48882;BME280;57063;51.406;-2.402;2024-01-07T05:28:10;101489.78;;;3.42;100.00
48882;BME280;57063;51.406;-2.402;2024-01-07T05:30:36;101492.53;;;3.22;100.00
48882;BME280;57063;51.406;-2.402;2024-01-07T05:33:01;101501.13;;;3.14;100.00
48882;BME280;57063;51.406;-2.402;2024-01-07T05:35:27;101505.38;;;3.12;100.00
48882;BME280;57063;51.406;-2.402;2024-01-07T05:37:52;101504.59;;;3.08;100.00
48882;BME280;57063;51.406;-2.402;2024-01-07T05:40:18;101507.13;;;3.07;100.00
48882;BME280;57063;51.406;-2.402;2024-01-07T05:42:43;101508.06;;;3.03;100.00
48882;BME280;57063;51.406;-2.402;2024-01-07T05:45:08;101507.22;;;2.97;100.00
48882;BME280;57063;51.406;-2.402;2024-01-07T05:47:34;101513.13;;;3.06;100.00
48882;BME280;57063;51.406;-2.402;2024-01-07T05:49:59;101513.75;;;3.26;100.00
48882;BME280;57063;51.406;-2.402;2024-01-07T05:52:25;101510.44;;;3.16;100.00
48882;BME280;57063;51.406;-2.402;2024-01-07T05:54:50;101508.72;;;3.20;100.00
48882;BME280;57063;51.406;-2.402;2024-01-07T05:57:15;101519.88;;;3.08;100.00
48882;BME280;57063;51.406;-2.402;2024-01-07T05:59:43;101524.03;;;3.20;100.00
48882;BME280;57063;51.406;-2.402;2024-01-07T06:02:09;101524.00;;;3.23;100.00
48882;BME280;57063;51.406;-2.402;2024-01-07T06:04:34;101516.34;;;3.21;100.00
48882;BME280;57063;51.406;-2.402;2024-01-07T06:06:59;101524.00;;;3.23;100.00
48882;BME280;57063;51.406;-2.402;2024-01-07T06:09:25;101540.97;;;3.26;100.00
48882;BME280;57063;51.406;-2.402;2024-01-07T06:11:50;101530.78;;;3.24;100.00
48882;BME280;57063;51.406;-2.402;2024-01-07T06:14:15;101524.88;;;3.20;100.00
48882;BME280;57063;51.406;-2.402;2024-01-07T06:16:41;101534.22;;;3.23;100.00
48882;BME280;57063;51.406;-2.402;2024-01-07T06:19:07;101538.44;;;3.26;100.00
48882;BME280;57063;51.406;-2.402;2024-01-07T06:21:33;101542.63;;;3.31;100.00
48882;BME280;57063;51.406;-2.402;2024-01-07T06:23:58;101546.84;;;3.37;100.00
48882;BME280;57063;51.406;-2.402;2024-01-07T06:26:24;101543.50;;;3.30;100.00
48882;BME280;57063;51.406;-2.402;2024-01-07T06:28:49;101537.47;;;3.37;100.00
48882;BME280;57063;51.406;-2.402;2024-01-07T06:31:15;101550.16;;;3.47;100.00
48882;BME280;57063;51.406;-2.402;2024-01-07T06:33:40;101543.28;;;3.52;100.00
48882;BME280;57063;51.406;-2.402;2024-01-07T06:36:06;101549.13;;;3.60;100.00
48882;BME280;57063;51.406;-2.402;2024-01-07T06:38:31;101558.66;;;3.47;100.00
48882;BME280;57063;51.406;-2.402;2024-01-07T06:40:56;101555.28;;;3.42;100.00
48882;BME280;57063;51.406;-2.402;2024-01-07T06:43:27;101557.72;;;3.53;100.00
48882;BME280;57063;51.406;-2.402;2024-01-07T06:45:52;101561.91;;;3.60;100.00
48882;BME280;57063;51.406;-2.402;2024-01-07T06:48:18;101564.53;;;3.54;100.00
48882;BME280;57063;51.406;-2.402;2024-01-07T06:50:44;101569.59;;;3.57;100.00
48882;BME280;57063;51.406;-2.402;2024-01-07T06:53:09;101573.16;;;3.40;100.00
48882;BME280;57063;51.406;-2.402;2024-01-07T06:55:34;101578.22;;;3.45;100.00
48882;BME280;57063;51.406;-2.402;2024-01-07T06:58:00;101583.28;;;3.50;100.00
48882;BME280;57063;51.406;-2.402;2024-01-07T07:00:25;101585.09;;;3.38;100.00
48882;BME280;57063;51.406;-2.402;2024-01-07T07:02:51;101593.53;;;3.43;100.00
48882;BME280;57063;51.406;-2.402;2024-01-07T07:05:16;101584.97;;;3.51;100.00
48882;BME280;57063;51.406;-2.402;2024-01-07T07:07:42;101586.72;;;3.46;100.00
48882;BME280;57063;51.406;-2.402;2024-01-07T07:10:08;101601.97;;;3.53;100.00
48882;BME280;57063;51.406;-2.402;2024-01-07T07:12:33;101604.63;;;3.44;100.00
48882;BME280;57063;51.406;-2.402;2024-01-07T07:14:58;101601.19;;;3.45;100.00
48882;BME280;57063;51.406;-2.402;2024-01-07T07:17:24;101600.19;;;3.60;100.00
48882;BME280;57063;51.406;-2.402;2024-01-07T07:19:49;101607.09;;;3.52;100.00
48882;BME280;57063;51.406;-2.402;2024-01-07T07:22:16;101600.38;;;3.41;100.00
48882;BME280;57063;51.406;-2.402;2024-01-07T07:24:45;101600.28;;;3.51;100.00
48882;BME280;57063;51.406;-2.402;2024-01-07T07:27:10;101615.50;;;3.60;100.00
48882;BME280;57063;51.406;-2.402;2024-01-07T07:29:35;101607.97;;;3.49;100.00
48882;BME280;57063;51.406;-2.402;2024-01-07T07:32:01;101623.13;;;3.64;100.00
48882;BME280;57063;51.406;-2.402;2024-01-07T07:34:26;101622.38;;;3.53;100.00
48882;BME280;57063;51.406;-2.402;2024-01-07T07:36:52;101625.84;;;3.48;100.00
48882;BME280;57063;51.406;-2.402;2024-01-07T07:39:17;101631.72;;;3.57;100.00
48882;BME280;57063;51.406;-2.402;2024-01-07T07:41:43;101636.94;;;3.45;100.00
48882;BME280;57063;51.406;-2.402;2024-01-07T07:44:08;101636.09;;;3.45;100.00
48882;BME280;57063;51.406;-2.402;2024-01-07T07:46:33;101627.66;;;3.33;100.00
48882;BME280;57063;51.406;-2.402;2024-01-07T07:48:59;101624.31;;;3.30;100.00
48882;BME280;57063;51.406;-2.402;2024-01-07T07:51:26;101637.03;;;3.33;100.00
48882;BME280;57063;51.406;-2.402;2024-01-07T07:53:51;101646.41;;;3.32;100.00
48882;BME280;57063;51.406;-2.402;2024-01-07T07:56:17;101643.13;;;3.15;100.00
48882;BME280;57063;51.406;-2.402;2024-01-07T07:58:42;101641.44;;;3.09;100.00
48882;BME280;57063;51.406;-2.402;2024-01-07T08:01:23;101649.88;;;3.19;100.00
48882;BME280;57063;51.406;-2.402;2024-01-07T08:03:49;101655.91;;;3.10;100.00
48882;BME280;57063;51.406;-2.402;2024-01-07T08:06:14;101664.38;;;3.15;100.00
48882;BME280;57063;51.406;-2.402;2024-01-07T08:08:40;101666.91;;;3.17;100.00
48882;BME280;57063;51.406;-2.402;2024-01-07T08:11:36;101651.63;;;3.15;100.00
48882;BME280;57063;51.406;-2.402;2024-01-07T08:14:02;101649.13;;;3.05;100.00
48882;BME280;57063;51.406;-2.402;2024-01-07T08:16:27;101663.44;;;3.24;100.00
48882;BME280;57063;51.406;-2.402;2024-01-07T08:18:53;101655.88;;;3.13;100.00
48882;BME280;57063;51.406;-2.402;2024-01-07T08:21:21;101663.56;;;3.09;100.00
48882;BME280;57063;51.406;-2.402;2024-01-07T08:23:48;101668.66;;;3.09;100.00
48882;BME280;57063;51.406;-2.402;2024-01-07T08:26:18;101673.78;;;3.10;100.00
48882;BME280;57063;51.406;-2.402;2024-01-07T08:28:44;101684.03;;;3.03;100.00
48882;BME280;57063;51.406;-2.402;2024-01-07T08:31:09;101679.00;;;2.90;100.00
48882;BME280;57063;51.406;-2.402;2024-01-07T08:33:35;101689.16;;;2.96;100.00
48882;BME280;57063;51.406;-2.402;2024-01-07T08:36:03;101692.53;;;2.98;100.00
48882;BME280;57063;51.406;-2.402;2024-01-07T08:38:30;101691.69;;;2.96;100.00
48882;BME280;57063;51.406;-2.402;2024-01-07T08:40:56;101692.59;;;2.88;100.00
48882;BME280;57063;51.406;-2.402;2024-01-07T08:43:21;101692.66;;;2.77;100.00
48882;BME280;57063;51.406;-2.402;2024-01-07T08:45:58;101696.06;;;2.79;100.00
48882;BME280;57063;51.406;-2.402;2024-01-07T08:48:36;101704.56;;;2.78;100.00
48882;BME280;57063;51.406;-2.402;2024-01-07T08:51:01;101704.56;;;2.70;100.00
48882;BME280;57063;51.406;-2.402;2024-01-07T08:53:31;101719.81;;;2.84;100.00
48882;BME280;57063;51.406;-2.402;2024-01-07T08:55:57;101707.94;;;2.77;100.00
48882;BME280;57063;51.406;-2.402;2024-01-07T08:58:22;101722.38;;;2.83;100.00
48882;BME280;57063;51.406;-2.402;2024-01-07T09:00:47;101701.22;;;2.67;100.00
48882;BME280;57063;51.406;-2.402;2024-01-07T09:03:13;101702.91;;;2.63;100.00
48882;BME280;57063;51.406;-2.402;2024-01-07T09:05:39;101724.09;;;2.79;100.00
48882;BME280;57063;51.406;-2.402;2024-01-07T09:08:04;101702.88;;;2.68;100.00
48882;BME280;57063;51.406;-2.402;2024-01-07T09:10:31;101711.41;;;2.67;100.00
48882;BME280;57063;51.406;-2.402;2024-01-07T09:12:59;101707.13;;;2.72;100.00
48882;BME280;57063;51.406;-2.402;2024-01-07T09:15:25;101711.44;;;2.64;100.00
48882;BME280;57063;51.406;-2.402;2024-01-07T09:17:50;101726.69;;;2.70;100.00
48882;BME280;57063;51.406;-2.402;2024-01-07T09:20:15;101730.06;;;2.78;100.00
48882;BME280;57063;51.406;-2.402;2024-01-07T09:22:41;101740.22;;;2.84;100.00
48882;BME280;57063;51.406;-2.402;2024-01-07T09:25:09;101734.28;;;2.77;100.00
48882;BME280;57063;51.406;-2.402;2024-01-07T09:27:34;101736.84;;;2.79;100.00
48882;BME280;57063;51.406;-2.402;2024-01-07T09:29:59;101755.47;;;2.96;100.00
48882;BME280;57063;51.406;-2.402;2024-01-07T09:32:25;101746.16;;;2.85;100.00
48882;BME280;57063;51.406;-2.402;2024-01-07T09:34:50;101747.88;;;2.81;100.00
48882;BME280;57063;51.406;-2.402;2024-01-07T09:37:16;101761.41;;;2.94;100.00
48882;BME280;57063;51.406;-2.402;2024-01-07T09:39:42;101747.03;;;2.82;100.00
48882;BME280;57063;51.406;-2.402;2024-01-07T09:42:12;101758.84;;;2.98;100.00
48882;BME280;57063;51.406;-2.402;2024-01-07T09:44:38;101759.72;;;2.96;100.00
48882;BME280;57063;51.406;-2.402;2024-01-07T09:47:05;101762.28;;;2.91;100.00
48882;BME280;57063;51.406;-2.402;2024-01-07T09:49:30;101751.25;;;2.91;100.00
48882;BME280;57063;51.406;-2.402;2024-01-07T09:51:59;101755.50;;;2.89;100.00
48882;BME280;57063;51.406;-2.402;2024-01-07T09:54:26;101758.88;;;2.95;100.00
48882;BME280;57063;51.406;-2.402;2024-01-07T09:56:55;101770.72;;;3.06;100.00
48882;BME280;57063;51.406;-2.402;2024-01-07T09:59:25;101766.47;;;3.05;100.00
48882;BME280;57063;51.406;-2.402;2024-01-07T10:01:53;101775.66;;;3.38;100.00
48882;BME280;57063;51.406;-2.402;2024-01-07T10:04:18;101776.34;;;3.60;100.00
48882;BME280;57063;51.406;-2.402;2024-01-07T10:06:43;101767.31;;;4.21;100.00
48882;BME280;57063;51.406;-2.402;2024-01-07T10:09:11;101774.69;;;4.48;100.00
48882;BME280;57063;51.406;-2.402;2024-01-07T10:11:38;101775.03;;;4.95;100.00
48882;BME280;57063;51.406;-2.402;2024-01-07T10:14:05;101764.41;;;5.24;99.67
48882;BME280;57063;51.406;-2.402;2024-01-07T10:16:33;101774.56;;;5.29;99.62
48882;BME280;57063;51.406;-2.402;2024-01-07T10:19:01;101771.09;;;5.90;93.67
48882;BME280;57063;51.406;-2.402;2024-01-07T10:21:27;101784.50;;;6.08;90.92
48882;BME280;57063;51.406;-2.402;2024-01-07T10:24:11;101795.28;;;8.57;76.79
48882;BME280;57063;51.406;-2.402;2024-01-07T10:26:38;101791.69;;;7.96;68.88
48882;BME280;57063;51.406;-2.402;2024-01-07T10:29:05;101800.44;;;8.23;68.48
48882;BME280;57063;51.406;-2.402;2024-01-07T10:34:18;101794.63;;;7.04;79.70
48882;BME280;57063;51.406;-2.402;2024-01-07T10:36:46;101796.03;;;6.77;74.77
48882;BME280;57063;51.406;-2.402;2024-01-07T10:39:12;101796.72;;;7.64;77.06
48882;BME280;57063;51.406;-2.402;2024-01-07T10:41:38;101785.66;;;8.64;68.79
48882;BME280;57063;51.406;-2.402;2024-01-07T10:44:04;101785.09;;;8.84;64.33
48882;BME280;57063;51.406;-2.402;2024-01-07T10:46:30;101793.31;;;7.64;69.03
48882;BME280;57063;51.406;-2.402;2024-01-07T10:51:28;101782.88;;;7.34;77.72
48882;BME280;57063;51.406;-2.402;2024-01-07T10:53:55;101794.91;;;9.29;67.84
48882;BME280;57063;51.406;-2.402;2024-01-07T10:56:33;101785.13;;;11.16;59.47
48882;BME280;57063;51.406;-2.402;2024-01-07T10:59:03;101792.69;;;10.75;57.59
48882;BME280;57063;51.406;-2.402;2024-01-07T11:01:29;101790.88;;;10.53;58.80
48882;BME280;57063;51.406;-2.402;2024-01-07T11:04:10;101787.75;;;10.68;57.51
48882;BME280;57063;51.406;-2.402;2024-01-07T11:06:55;101785.44;;;11.08;57.11
48882;BME280;57063;51.406;-2.402;2024-01-07T11:09:59;101788.28;;;10.53;58.57
48882;BME280;57063;51.406;-2.402;2024-01-07T11:12:26;101780.72;;;11.41;54.70
48882;BME280;57063;51.406;-2.402;2024-01-07T11:14:51;101788.41;;;10.50;57.11
48882;BME280;57063;51.406;-2.402;2024-01-07T11:20:02;101797.63;;;9.52;56.40
48882;BME280;57063;51.406;-2.402;2024-01-07T11:22:28;101801.03;;;8.32;60.76
48882;BME280;57063;51.406;-2.402;2024-01-07T11:24:54;101791.84;;;8.56;62.50
48882;BME280;57063;51.406;-2.402;2024-01-07T11:27:24;101806.78;;;7.74;64.38
48882;BME280;57063;51.406;-2.402;2024-01-07T11:30:02;101802.88;;;8.62;63.63
48882;BME280;57063;51.406;-2.402;2024-01-07T11:38:18;101784.91;;;7.93;70.41
48882;BME280;57063;51.406;-2.402;2024-01-07T11:40:44;101783.63;;;7.38;71.71
48882;BME280;57063;51.406;-2.402;2024-01-07T11:43:10;101791.94;;;7.49;65.72
48882;BME280;57063;51.406;-2.402;2024-01-07T11:45:36;101787.22;;;7.31;71.66
48882;BME280;57063;51.406;-2.402;2024-01-07T11:48:01;101790.72;;;6.42;74.35
48882;BME280;57063;51.406;-2.402;2024-01-07T11:50:27;101788.75;;;6.99;73.47
48882;BME280;57063;51.406;-2.402;2024-01-07T11:52:53;101779.91;;;6.72;73.24
48882;BME280;57063;51.406;-2.402;2024-01-07T11:55:19;101785.34;;;6.08;77.75
48882;BME280;57063;51.406;-2.402;2024-01-07T11:57:46;101790.31;;;6.16;76.76
48882;BME280;57063;51.406;-2.402;2024-01-07T12:00:11;101778.94;;;6.32;76.74
48882;BME280;57063;51.406;-2.402;2024-01-07T12:02:37;101793.66;;;6.21;78.56
48882;BME280;57063;51.406;-2.402;2024-01-07T12:05:03;101795.59;;;6.07;79.90
48882;BME280;57063;51.406;-2.402;2024-01-07T12:07:28;101791.03;;;6.24;77.19
48882;BME280;57063;51.406;-2.402;2024-01-07T12:09:57;101785.75;;;6.33;73.79
48882;BME280;57063;51.406;-2.402;2024-01-07T12:12:23;101801.41;;;6.18;76.28
48882;BME280;57063;51.406;-2.402;2024-01-07T12:14:48;101788.22;;;5.88;74.25
48882;BME280;57063;51.406;-2.402;2024-01-07T12:17:17;101788.66;;;6.15;76.04
48882;BME280;57063;51.406;-2.402;2024-01-07T12:19:42;101782.06;;;6.00;76.88
48882;BME280;57063;51.406;-2.402;2024-01-07T12:22:08;101788.84;;;6.03;75.96
48882;BME280;57063;51.406;-2.402;2024-01-07T12:24:34;101777.91;;;5.91;80.23
48882;BME280;57063;51.406;-2.402;2024-01-07T12:27:06;101785.84;;;5.76;79.21
48882;BME280;57063;51.406;-2.402;2024-01-07T12:29:32;101776.22;;;5.90;82.63
48882;BME280;57063;51.406;-2.402;2024-01-07T12:32:02;101771.84;;;5.98;80.22
48882;BME280;57063;51.406;-2.402;2024-01-07T12:34:30;101765.66;;;5.56;78.58
48882;BME280;57063;51.406;-2.402;2024-01-07T12:36:55;101770.72;;;5.59;79.34
48882;BME280;57063;51.406;-2.402;2024-01-07T12:39:21;101776.75;;;5.56;79.63
48882;BME280;57063;51.406;-2.402;2024-01-07T12:41:46;101783.56;;;5.57;81.26
48882;BME280;57063;51.406;-2.402;2024-01-07T12:44:12;101783.28;;;5.76;79.83
48882;BME280;57063;51.406;-2.402;2024-01-07T12:46:38;101775.31;;;5.94;78.56
48882;BME280;57063;51.406;-2.402;2024-01-07T12:49:03;101774.25;;;5.50;81.06
48882;BME280;57063;51.406;-2.402;2024-01-07T12:51:28;101792.59;;;5.80;81.89